Hlavní strana
METAR-TAF:

METAR-TAF

Letiště :

West Memphis, Arkansas, Spojené státy americké

zeměpisná šířka: 35-08N, zeměpisná délka: 090-14W, výška: 65 m

Aktuální stav počasí

Zpráva byla vytvořena před 37 minutami, v 10:53 UTC
Severozápadní vítr 4 kt
Teplota 2°C
Vlhkost vzduchu 87%
Tlak 1029 hPa
Viditelnost: 16.1 km
Jasno

METAR: KAWM 071053Z AUTO 31004KT 10SM CLR 02/00 A3038 RMK AO2 SLP287 T00170000

Čas: 05:30 (11:30 UTC)


TAF: chybějící

Stav a předpovědi počasí z více než 4 000 letišť (zprávy METAR a TAF).

Červené a žluté tečky na mapě představují dostupné meteorologické stanice.

Když kurzor umístíte na tečku, zobrazí se název stanice.

Pak kliknutím zobrazíte stav a předpověď počasí.

Chcete-li změnit mapu, kliknutím na zelené tlačítko se znaménkem +mapu přiblížíte, kliknutím na zelené tlačítko se znaménkem – mapu oddálíte a kliknutím na zelené šipky přejdete na sousední mapy.


METAR-TAF: